Time;durP1;ratioP1;P1;durP2;ratioP2;P2;SDS_P1;SDS_P2;PMS_P1;PMS_P2;Temp;Humidity;BMP_temperature;BMP_pressure;BME280_temperature;BME280_humidity;BME280_pressure;Samples;Min_cycle;Max_cycle;Signal;HPM_P1;HPM_P2
2022/05/23 00:00:49;;;;;;;3.63;2.83;;;;;;;18.20;nan;-24323.91;5071507;28;20556;-63
2022/05/23 00:03:15;;;;;;;4.13;2.70;;;;;;;18.23;nan;-24324.59;5071271;28;20324;-64
2022/05/23 00:05:40;;;;;;;2.60;2.30;;;;;;;18.07;nan;-24320.44;5071539;28;20691;-64
2022/05/23 00:08:06;;;;;;;3.22;2.60;;;;;;;18.09;nan;-24320.84;5073777;28;20226;-63
2022/05/23 00:10:32;;;;;;;6.10;3.20;;;;;;;17.89;nan;-24315.41;5076155;28;20177;-63
2022/05/23 00:12:58;;;;;;;4.43;2.90;;;;;;;17.64;nan;-24308.56;5072143;28;20174;-63
2022/05/23 00:15:24;;;;;;;4.20;3.03;;;;;;;17.62;nan;-24307.88;5076744;28;20635;-64
2022/05/23 00:17:49;;;;;;;4.72;3.15;;;;;;;17.32;nan;-24299.63;5071104;28;20178;-65
2022/05/23 00:20:19;;;;;;;4.60;3.20;;;;;;;17.61;nan;-24307.59;5071436;28;20581;-65
2022/05/23 00:22:45;;;;;;;9.65;3.05;;;;;;;17.61;nan;-24307.75;5071394;28;20300;-65
2022/05/23 00:25:11;;;;;;;4.65;3.20;;;;;;;17.21;nan;-24296.72;5070254;28;20178;-63
2022/05/23 00:27:39;;;;;;;5.07;3.17;;;;;;;17.07;nan;-24292.81;5070895;28;20163;-63
2022/05/23 00:30:09;;;;;;;3.72;2.83;;;;;;;16.95;nan;-24289.44;5070947;28;20154;-64
2022/05/23 00:35:19;;;;;;;6.22;3.70;;;;;;;16.81;nan;-24285.41;5075281;28;20209;-64
2022/05/23 00:37:47;;;;;;;5.38;3.47;;;;;;;16.71;nan;-24282.75;5070731;28;20186;-65
2022/05/23 00:40:45;;;;;;;5.47;4.10;;;;;;;16.52;nan;-24277.56;5071062;28;20257;-63
2022/05/23 00:43:17;;;;;;;6.43;3.80;;;;;;;16.51;nan;-24277.16;5066868;28;20721;-64
2022/05/23 00:45:55;;;;;;;6.18;3.80;;;;;;;16.17;nan;-24267.94;5074622;28;20205;-63
2022/05/23 00:48:23;;;;;;;4.72;3.30;;;;;;;16.50;nan;-24277.00;5074530;28;20193;-62
2022/05/23 00:50:53;;;;;;;5.85;3.28;;;;;;;16.25;nan;-24270.16;5074345;28;20177;-64
2022/05/23 00:53:48;;;;;;;4.90;3.08;;;;;;;16.58;nan;-24279.13;5074037;28;20537;-62
2022/05/23 00:56:16;;;;;;;4.07;3.20;;;;;;;16.56;nan;-24278.53;5067814;28;20316;-64
2022/05/23 00:58:47;;;;;;;7.57;3.20;;;;;;;16.28;nan;-24270.84;5072262;28;20170;-63
2022/05/23 01:01:17;;;;;;;4.32;3.22;;;;;;;16.65;nan;-24281.22;5074291;28;20235;-63
2022/05/23 01:03:43;;;;;;;4.72;3.30;;;;;;;16.52;nan;-24277.56;5074526;28;20162;-65
2022/05/23 01:06:08;;;;;;;4.88;3.28;;;;;;;16.53;nan;-24277.72;5079437;28;20180;-62
2022/05/23 01:08:36;;;;;;;4.63;3.50;;;;;;;16.83;nan;-24285.97;5074554;28;20664;-65
2022/05/23 01:11:03;;;;;;;6.13;3.47;;;;;;;16.62;nan;-24280.38;5074450;28;20170;-63
2022/05/23 01:13:29;;;;;;;4.57;3.33;;;;;;;16.95;nan;-24289.44;5075293;28;20181;-64
2022/05/23 01:15:54;;;;;;;4.45;3.20;;;;;;;16.46;nan;-24275.75;5078646;28;20210;-67
2022/05/23 01:18:20;;;;;;;5.05;3.10;;;;;;;16.57;nan;-24278.97;5074073;28;20187;-62
2022/05/23 01:20:50;;;;;;;5.72;3.60;;;;;;;16.76;nan;-24284.13;5074265;28;20585;-62
2022/05/23 01:23:34;;;;;;;4.72;3.40;;;;;;;16.83;nan;-24285.97;5075866;28;20180;-63
2022/05/23 01:25:59;;;;;;;4.63;3.30;;;;;;;16.83;nan;-24286.09;5078329;28;20185;-62
2022/05/23 01:28:25;;;;;;;4.97;2.97;;;;;;;16.79;nan;-24285.13;5076541;28;20327;-62
2022/05/23 01:30:50;;;;;;;8.00;3.67;;;;;;;16.91;nan;-24288.19;5071834;28;20178;-63
2022/05/23 01:33:16;;;;;;;6.93;3.10;;;;;;;16.87;nan;-24287.06;5074545;28;20227;-64
2022/05/23 01:35:42;;;;;;;4.80;3.22;;;;;;;16.27;nan;-24270.72;5072714;28;20212;-63
2022/05/23 01:38:09;;;;;;;4.10;3.28;;;;;;;16.31;nan;-24271.69;5074712;28;20190;-63
2022/05/23 01:40:35;;;;;;;4.57;3.35;;;;;;;15.98;nan;-24262.59;5071825;28;20217;-64
2022/05/23 01:43:00;;;;;;;5.65;3.95;;;;;;;16.32;nan;-24271.97;5070866;28;20217;-63
2022/05/23 01:45:34;;;;;;;5.60;3.20;;;;;;;16.06;nan;-24264.72;5073958;28;20607;-64
2022/05/23 01:48:00;;;;;;;4.07;3.38;;;;;;;15.84;nan;-24258.84;5078431;28;20709;-64
2022/05/23 01:50:26;;;;;;;4.55;3.22;;;;;;;16.00;nan;-24263.03;5079086;28;20197;-62
2022/05/23 01:52:53;;;;;;;4.85;3.50;;;;;;;15.91;nan;-24260.78;5072520;28;20190;-62
2022/05/23 01:55:18;;;;;;;5.07;3.55;;;;;;;15.66;nan;-24253.66;5073401;28;20226;-65
2022/05/23 01:57:44;;;;;;;4.22;3.28;;;;;;;15.62;nan;-24252.53;5073807;28;20288;-64
2022/05/23 02:02:55;;;;;;;6.88;3.58;;;;;;;15.84;nan;-24258.84;5073723;28;20227;-64
2022/05/23 02:05:22;;;;;;;5.40;3.33;;;;;;;15.76;nan;-24256.59;5073862;28;20174;-65
2022/05/23 02:07:47;;;;;;;4.32;3.38;;;;;;;15.78;nan;-24257.00;5073453;28;20170;-64
2022/05/23 02:10:13;;;;;;;6.05;3.42;;;;;;;15.69;nan;-24254.63;5073320;28;20285;-65
2022/05/23 02:12:39;;;;;;;7.43;3.90;;;;;;;15.77;nan;-24256.88;5073056;28;20231;-63
2022/05/23 02:15:06;;;;;;;4.78;3.55;;;;;;;15.82;nan;-24258.28;5073218;28;20210;-64
2022/05/23 02:17:32;;;;;;;4.97;3.40;;;;;;;16.15;nan;-24267.38;5073798;28;20170;-62
2022/05/23 02:19:58;;;;;;;4.68;3.47;;;;;;;16.16;nan;-24267.50;5073250;28;20686;-65
2022/05/23 02:22:23;;;;;;;6.13;4.05;;;;;;;16.40;nan;-24274.06;5078262;28;20274;-65
2022/05/23 02:24:49;;;;;;;4.90;3.65;;;;;;;16.64;nan;-24280.94;5073018;28;20235;-64
2022/05/23 02:27:14;;;;;;;4.55;3.40;;;;;;;16.78;nan;-24284.84;5072601;28;20657;-63
2022/05/23 02:29:40;;;;;;;5.20;3.78;;;;;;;17.02;nan;-24291.25;5071605;28;20178;-64
2022/05/23 02:32:06;;;;;;;6.15;3.50;;;;;;;17.12;nan;-24294.06;5073307;28;20668;-63
2022/05/23 02:34:32;;;;;;;4.38;3.42;;;;;;;16.83;nan;-24286.09;5073154;28;20606;-65
2022/05/23 02:36:57;;;;;;;4.82;3.40;;;;;;;16.98;nan;-24290.28;5072591;28;20181;-64
2022/05/23 02:39:23;;;;;;;4.25;3.47;;;;;;;17.27;nan;-24298.09;5072724;28;20231;-63
2022/05/23 02:41:50;;;;;;;4.57;3.67;;;;;;;17.38;nan;-24301.31;5072126;28;20212;-63
2022/05/23 02:44:15;;;;;;;4.68;3.70;;;;;;;17.39;nan;-24301.59;5072414;28;20174;-64
2022/05/23 02:46:41;;;;;;;4.60;3.65;;;;;;;17.21;nan;-24296.72;5072641;28;20557;-63
2022/05/23 02:49:06;;;;;;;4.97;4.03;;;;;;;17.25;nan;-24297.69;5072777;28;20176;-63
2022/05/23 02:51:33;;;;;;;5.78;3.90;;;;;;;17.05;nan;-24292.25;5072357;28;20205;-64
2022/05/23 02:53:59;;;;;;;5.25;3.50;;;;;;;17.58;nan;-24306.91;5072027;28;20756;-62
2022/05/23 02:56:24;;;;;;;7.22;3.63;;;;;;;17.49;nan;-24304.38;5070113;28;20201;-64
2022/05/23 02:58:50;;;;;;;5.82;3.83;;;;;;;17.43;nan;-24302.56;5071244;28;20780;-63
2022/05/23 03:01:16;;;;;;;8.27;3.70;;;;;;;17.47;nan;-24303.69;5070500;28;20304;-64
2022/05/23 03:03:41;;;;;;;4.72;3.67;;;;;;;17.71;nan;-24310.25;5067817;28;20542;-63
2022/05/23 03:06:08;;;;;;;6.03;3.80;;;;;;;17.62;nan;-24308.00;5068298;28;20193;-64
2022/05/23 03:08:35;;;;;;;5.38;3.90;;;;;;;18.31;nan;-24326.84;5068999;28;21153;-63
2022/05/23 03:11:03;;;;;;;5.25;3.83;;;;;;;18.66;nan;-24336.59;5072166;28;20699;-63
2022/05/23 03:13:29;;;;;;;4.78;3.38;;;;;;;19.09;nan;-24348.28;5072006;28;20183;-64
2022/05/23 03:15:55;;;;;;;5.03;3.63;;;;;;;19.54;nan;-24360.66;5071936;28;20675;-63
2022/05/23 03:18:21;;;;;;;5.75;3.40;;;;;;;20.19;nan;-24378.59;5073706;28;20264;-63
2022/05/23 03:20:47;;;;;;;4.90;3.05;;;;;;;20.65;nan;-24391.38;5071970;28;20186;-64
2022/05/23 03:28:42;;;;;;;5.47;3.40;;;;;;;22.46;nan;-24440.97;5071203;28;20250;-63
2022/05/23 03:31:08;;;;;;;4.95;3.45;;;;;;;21.90;nan;-24425.47;5076063;28;20185;-62
2022/05/23 03:33:34;;;;;;;4.93;3.30;;;;;;;21.71;nan;-24420.34;5073944;28;20184;-64
2022/05/23 03:36:00;;;;;;;5.38;3.30;;;;;;;21.25;nan;-24407.59;5075149;28;20300;-65
2022/05/23 03:38:27;;;;;;;4.60;3.30;;;;;;;22.26;nan;-24435.44;5076201;28;20185;-64
2022/05/23 03:40:53;;;;;;;4.30;3.45;;;;;;;22.85;nan;-24451.50;5076483;28;20177;-66
2022/05/23 03:43:19;;;;;;;4.75;3.30;;;;;;;23.48;nan;-24468.63;5079655;28;20200;-65
2022/05/23 03:45:45;;;;;;;4.93;3.50;;;;;;;23.22;nan;-24461.72;5076955;28;20194;-66
2022/05/23 03:48:11;;;;;;;5.00;3.60;;;;;;;23.38;nan;-24465.88;5075498;28;20185;-64
2022/05/23 03:50:37;;;;;;;5.18;3.45;;;;;;;23.44;nan;-24467.66;5075721;28;20189;-64
2022/05/23 03:53:03;;;;;;;5.97;3.83;;;;;;;22.27;nan;-24435.72;5076351;28;20232;-64
2022/05/23 03:55:30;;;;;;;6.22;3.65;;;;;;;21.63;nan;-24418.00;5076502;28;20233;-65
2022/05/23 03:57:56;;;;;;;4.93;3.70;;;;;;;21.82;nan;-24423.41;5073995;28;20737;-63
2022/05/23 04:00:22;;;;;;;6.45;3.58;;;;;;;23.23;nan;-24461.84;5076001;28;20695;-65
2022/05/23 04:02:47;;;;;;;4.15;3.10;;;;;;;25.07;nan;-24512.19;5074965;28;20267;-64
2022/05/23 04:05:14;;;;;;;4.65;3.38;;;;;;;26.10;nan;-24539.97;5075587;28;20205;-65
2022/05/23 04:07:41;;;;;;;4.75;3.25;;;;;;;25.94;nan;-24535.88;5076174;28;20188;-65
2022/05/23 04:10:13;;;;;;;5.13;3.67;;;;;;;26.90;nan;-24561.81;5074300;28;20173;-64
2022/05/23 04:12:38;;;;;;;4.60;3.75;;;;;;;27.19;nan;-24569.78;5068515;28;20239;-64
2022/05/23 04:15:05;;;;;;;6.45;3.67;;;;;;;22.48;nan;-24441.41;5065962;28;20580;-65
2022/05/23 04:17:31;;;;;;;4.80;3.65;;;;;;;26.46;nan;-24549.88;5068034;28;20204;-64
2022/05/23 04:19:56;;;;;;;4.30;3.50;;;;;;;26.11;nan;-24540.41;5068567;28;20181;-62
2022/05/23 04:22:22;;;;;;;6.20;4.35;;;;;;;25.12;nan;-24513.44;5072141;28;20182;-63
2022/05/23 04:24:47;;;;;;;5.28;3.53;;;;;;;24.30;nan;-24491.13;5072928;28;20649;-65
2022/05/23 04:27:13;;;;;;;4.65;3.83;;;;;;;23.42;nan;-24466.97;5080451;28;20165;-63
2022/05/23 04:29:38;;;;;;;4.38;3.42;;;;;;;22.81;nan;-24450.53;5071353;28;20644;-63
2022/05/23 04:35:12;;;;;;;4.35;3.40;;;;;;;22.36;nan;-24438.06;5069620;28;20405;-62
2022/05/23 04:37:48;;;;;;;6.75;4.25;;;;;;;23.29;nan;-24463.66;5058688;28;20205;-64
2022/05/23 04:40:16;;;;;;;4.20;3.42;;;;;;;22.49;nan;-24441.66;5072183;28;20268;-66
2022/05/23 04:42:43;;;;;;;6.57;4.18;;;;;;;22.12;nan;-24431.44;5069711;28;20277;-66
2022/05/23 04:45:10;;;;;;;7.10;4.10;;;;;;;21.70;nan;-24420.06;5075626;28;20321;-64
2022/05/23 04:50:20;;;;;;;5.32;3.63;;;;;;;21.73;nan;-24420.91;5070860;28;20212;-67
2022/05/23 04:52:47;;;;;;;4.40;3.28;;;;;;;21.54;nan;-24415.66;5068661;28;20197;-63
2022/05/23 04:55:14;;;;;;;3.97;2.92;;;;;;;21.63;nan;-24418.13;5070702;28;20268;-63
2022/05/23 04:57:40;;;;;;;7.35;3.53;;;;;;;21.47;nan;-24413.69;5073629;28;20234;-63
2022/05/23 05:00:10;;;;;;;4.10;3.13;;;;;;;21.44;nan;-24413.00;5072151;28;20197;-65
2022/05/23 05:02:37;;;;;;;7.25;4.00;;;;;;;21.52;nan;-24415.09;5075160;28;20177;-65
2022/05/23 05:05:03;;;;;;;4.50;3.15;;;;;;;21.42;nan;-24412.47;5074565;28;20726;-67
2022/05/23 05:07:29;;;;;;;4.82;3.17;;;;;;;21.60;nan;-24417.31;5075677;28;20608;-64
2022/05/23 05:09:54;;;;;;;4.55;3.40;;;;;;;21.32;nan;-24409.69;5074487;28;20169;-64
2022/05/23 05:12:20;;;;;;;3.97;2.75;;;;;;;21.83;nan;-24423.53;5077337;28;20186;-66
2022/05/23 05:14:46;;;;;;;3.97;3.30;;;;;;;22.72;nan;-24447.91;5078043;28;20201;-66
2022/05/23 05:17:11;;;;;;;5.70;3.33;;;;;;;22.98;nan;-24455.09;5076988;28;20185;-66
2022/05/23 05:19:37;;;;;;;6.55;3.80;;;;;;;23.33;nan;-24464.63;5076876;28;20205;-66
2022/05/23 05:22:03;;;;;;;4.97;3.15;;;;;;;23.45;nan;-24467.94;5076639;28;20177;-66
2022/05/23 05:24:32;;;;;;;4.50;3.03;;;;;;;23.68;nan;-24474.28;5072179;28;20197;-66
2022/05/23 05:27:01;;;;;;;4.25;3.10;;;;;;;23.90;nan;-24480.09;5072500;28;20235;-66
2022/05/23 05:29:27;;;;;;;4.32;3.10;;;;;;;23.41;nan;-24466.69;5072417;28;20231;-64
2022/05/23 05:32:03;;;;;;;4.07;3.15;;;;;;;23.45;nan;-24467.94;5072665;28;20177;-64
2022/05/23 05:34:33;;;;;;;5.88;3.30;;;;;;;23.54;nan;-24470.41;5089484;28;20587;-66
2022/05/23 05:37:05;;;;;;;5.18;3.15;;;;;;;23.58;nan;-24471.53;5074536;28;20205;-65
2022/05/23 05:39:33;;;;;;;4.30;2.97;;;;;;;21.60;nan;-24417.31;5073672;28;20671;-65
2022/05/23 05:42:18;;;;;;;4.47;3.42;;;;;;;23.19;nan;-24460.75;5076160;28;20186;-65
2022/05/23 05:44:51;;;;;;;4.65;3.10;;;;;;;22.61;nan;-24445.00;5076734;28;20186;-67
2022/05/23 05:47:22;;;;;;;3.58;2.78;;;;;;;23.07;nan;-24457.44;5075976;28;20261;-63
2022/05/23 05:49:52;;;;;;;4.18;3.00;;;;;;;23.08;nan;-24457.72;5076737;28;20268;-66
2022/05/23 05:52:20;;;;;;;4.75;3.58;;;;;;;22.87;nan;-24452.03;5074233;28;20177;-65
2022/05/23 05:54:46;;;;;;;4.85;3.17;;;;;;;22.56;nan;-24443.47;5073750;28;20221;-64
2022/05/23 05:57:13;;;;;;;4.88;2.95;;;;;;;22.96;nan;-24454.53;5074352;28;20189;-65
2022/05/23 05:59:39;;;;;;;3.75;2.83;;;;;;;22.83;nan;-24451.09;5074977;28;20295;-64
2022/05/23 06:02:09;;;;;;;10.73;3.35;;;;;;;22.73;nan;-24448.19;5077495;28;20185;-64
2022/05/23 06:04:35;;;;;;;3.65;2.90;;;;;;;22.84;nan;-24451.34;5073177;28;20209;-67
2022/05/23 06:12:40;;;;;;;4.43;3.17;;;;;;;23.05;nan;-24456.88;5034564;28;20203;-64
2022/05/23 06:15:06;;;;;;;3.88;2.80;;;;;;;23.17;nan;-24460.34;5075857;28;20529;-66
2022/05/23 06:17:39;;;;;;;3.88;2.85;;;;;;;22.91;nan;-24453.16;5075766;28;20269;-67
2022/05/23 06:20:05;;;;;;;2.97;2.53;;;;;;;22.91;nan;-24453.16;5075075;28;20181;-66
2022/05/23 06:22:30;;;;;;;4.25;2.83;;;;;;;22.99;nan;-24455.22;5074245;28;20177;-66
2022/05/23 06:24:56;;;;;;;3.83;2.67;;;;;;;23.03;nan;-24456.47;5075423;28;20260;-65
2022/05/23 06:27:21;;;;;;;3.72;2.85;;;;;;;23.25;nan;-24462.56;5070550;28;20185;-66
2022/05/23 06:29:46;;;;;;;7.50;3.50;;;;;;;22.89;nan;-24452.59;5076195;28;20747;-63
2022/05/23 06:32:12;;;;;;;3.40;2.47;;;;;;;23.27;nan;-24462.97;5074672;28;20166;-65
2022/05/23 06:34:37;;;;;;;3.22;2.50;;;;;;;23.07;nan;-24457.56;5075032;28;20241;-63
2022/05/23 06:37:03;;;;;;;3.15;2.60;;;;;;;23.37;nan;-24465.72;5071946;28;20216;-63
2022/05/23 06:39:28;;;;;;;3.40;2.75;;;;;;;23.56;nan;-24470.84;5071798;28;20197;-65
2022/05/23 06:41:54;;;;;;;5.47;2.78;;;;;;;23.31;nan;-24464.19;5072765;28;20185;-65
2022/05/23 06:44:19;;;;;;;3.38;2.58;;;;;;;23.40;nan;-24466.41;5074398;28;20182;-63
2022/05/23 06:46:46;;;;;;;2.80;2.38;;;;;;;23.61;nan;-24472.22;5074311;28;20189;-65
2022/05/23 06:49:12;;;;;;;3.85;2.63;;;;;;;23.54;nan;-24470.28;5074195;28;20205;-63
2022/05/23 06:51:39;;;;;;;6.22;2.88;;;;;;;23.52;nan;-24469.88;5074275;28;20210;-64
2022/05/23 06:54:04;;;;;;;4.03;2.85;;;;;;;23.93;nan;-24481.06;5079240;28;20249;-66
2022/05/23 06:56:31;;;;;;;5.07;2.60;;;;;;;24.03;nan;-24483.66;5072135;28;20229;-67
2022/05/23 06:58:57;;;;;;;3.67;2.70;;;;;;;23.98;nan;-24482.44;5073852;28;20201;-66
2022/05/23 07:01:23;;;;;;;4.03;2.90;;;;;;;24.11;nan;-24485.88;5075079;28;20228;-65
2022/05/23 07:03:48;;;;;;;3.58;2.40;;;;;;;24.11;nan;-24486.00;5074348;28;21849;-62
2022/05/23 07:14:26;;;;;;;4.05;2.53;;;;;;;24.00;nan;-24482.84;5074870;28;20234;-64
2022/05/23 07:16:53;;;;;;;4.35;2.58;;;;;;;23.99;nan;-24482.72;5074041;28;20228;-65
2022/05/23 07:19:19;;;;;;;3.75;2.65;;;;;;;24.48;nan;-24496.09;5073750;28;20166;-67
2022/05/23 07:21:44;;;;;;;3.00;2.50;;;;;;;24.26;nan;-24490.03;5077302;28;20235;-65
2022/05/23 07:24:09;;;;;;;4.22;2.83;;;;;;;24.46;nan;-24495.41;5077618;28;20386;-66
2022/05/23 07:26:37;;;;;;;3.10;2.40;;;;;;;24.36;nan;-24492.78;5072071;28;20192;-65
2022/05/23 07:29:03;;;;;;;4.95;2.70;;;;;;;24.40;nan;-24493.88;5078039;28;20166;-63
2022/05/23 07:31:29;;;;;;;4.55;2.65;;;;;;;24.53;nan;-24497.31;5077147;28;20264;-66
2022/05/23 07:33:54;;;;;;;3.13;2.53;;;;;;;24.76;nan;-24503.53;5077709;28;20169;-65
2022/05/23 07:36:20;;;;;;;2.90;2.30;;;;;;;24.75;nan;-24503.38;5076926;28;20278;-68
2022/05/23 07:38:47;;;;;;;3.33;2.30;;;;;;;24.79;nan;-24504.47;5073364;28;20186;-65
2022/05/23 07:41:13;;;;;;;2.35;2.15;;;;;;;24.83;nan;-24505.44;5072360;28;20601;-66
2022/05/23 07:43:42;;;;;;;2.33;2.00;;;;;;;24.83;nan;-24505.59;5076348;28;20189;-63
2022/05/23 07:46:13;;;;;;;2.80;2.15;;;;;;;25.10;nan;-24512.88;5073901;28;20181;-66
2022/05/23 07:48:49;;;;;;;2.45;2.03;;;;;;;24.84;nan;-24505.88;5077463;28;20219;-68
2022/05/23 07:51:16;;;;;;;4.43;2.10;;;;;;;24.95;nan;-24508.91;5078459;28;20667;-67
2022/05/23 08:01:54;;;;;;;3.85;2.33;;;;;;;25.29;nan;-24517.97;5072297;28;20180;-65
2022/05/23 08:04:20;;;;;;;2.90;2.20;;;;;;;25.40;nan;-24521.00;5076482;28;20628;-66
2022/05/23 08:06:46;;;;;;;4.65;2.30;;;;;;;25.88;nan;-24534.06;5074483;28;20234;-63
2022/05/23 08:09:12;;;;;;;4.13;2.25;;;;;;;26.03;nan;-24538.19;5076375;28;20184;-64
2022/05/23 08:11:40;;;;;;;2.92;2.13;;;;;;;25.90;nan;-24534.75;5075806;28;20190;-67
2022/05/23 08:14:05;;;;;;;3.08;2.50;;;;;;;26.18;nan;-24542.31;5079225;28;20240;-67
2022/05/23 08:16:31;;;;;;;2.25;2.03;;;;;;;25.97;nan;-24536.56;5076297;28;20218;-64
2022/05/23 08:18:58;;;;;;;2.55;2.00;;;;;;;26.09;nan;-24539.84;5076808;28;20185;-65
2022/05/23 08:21:25;;;;;;;2.05;1.80;;;;;;;26.24;nan;-24543.84;5076744;28;20204;-65
2022/05/23 08:23:50;;;;;;;2.40;2.05;;;;;;;26.06;nan;-24539.03;5076609;28;20296;-67
2022/05/23 08:26:16;;;;;;;2.80;1.80;;;;;;;26.30;nan;-24545.63;5076307;28;20708;-67
2022/05/23 08:28:42;;;;;;;2.65;2.00;;;;;;;26.31;nan;-24545.91;5075802;28;20569;-66
2022/05/23 08:31:08;;;;;;;2.55;1.80;;;;;;;26.34;nan;-24546.72;5077513;28;20251;-65
2022/05/23 08:33:34;;;;;;;2.25;1.67;;;;;;;26.50;nan;-24550.97;5077857;28;20192;-63
2022/05/23 08:36:00;;;;;;;1.63;1.40;;;;;;;26.56;nan;-24552.63;5074281;28;20205;-66
2022/05/23 08:38:25;;;;;;;2.85;1.90;;;;;;;26.37;nan;-24547.53;5077636;28;20177;-65
2022/05/23 08:40:59;;;;;;;1.95;1.77;;;;;;;26.66;nan;-24555.38;5073400;28;20293;-67
2022/05/23 08:44:05;;;;;;;3.00;2.00;;;;;;;26.45;nan;-24549.47;5070316;28;20182;-66
2022/05/23 08:47:11;;;;;;;4.45;2.45;;;;;;;26.59;nan;-24553.31;5058982;28;20277;-64
2022/05/23 08:49:59;;;;;;;1.58;1.48;;;;;;;26.99;nan;-24564.16;5068902;28;20208;-66
2022/05/23 08:52:35;;;;;;;1.92;1.70;;;;;;;26.64;nan;-24554.81;5076312;28;20775;-64
2022/05/23 08:55:21;;;;;;;2.13;1.77;;;;;;;26.56;nan;-24552.47;5073367;28;20217;-63
2022/05/23 08:58:02;;;;;;;2.17;1.73;;;;;;;26.41;nan;-24548.38;5071145;28;20186;-66
2022/05/23 09:00:36;;;;;;;2.92;1.83;;;;;;;26.46;nan;-24549.75;5078643;28;20560;-67
2022/05/23 09:03:22;;;;;;;2.63;2.10;;;;;;;26.79;nan;-24558.94;5079024;28;20195;-68
2022/05/23 09:05:55;;;;;;;3.15;2.20;;;;;;;27.00;nan;-24564.56;5081053;28;20647;-65
2022/05/23 09:08:24;;;;;;;2.60;2.28;;;;;;;27.36;nan;-24574.31;5113621;27;20276;-66
2022/05/23 09:10:59;;;;;;;2.65;1.98;;;;;;;26.89;nan;-24561.41;5081360;28;20182;-66
2022/05/23 09:13:32;;;;;;;2.88;2.10;;;;;;;26.94;nan;-24562.91;5074570;28;20199;-63
2022/05/23 09:16:04;;;;;;;1.67;1.48;;;;;;;27.15;nan;-24568.53;5077491;28;20232;-66
2022/05/23 09:18:44;;;;;;;3.42;2.28;;;;;;;26.96;nan;-24563.34;5078457;28;20184;-65
2022/05/23 09:21:10;;;;;;;2.85;2.10;;;;;;;26.70;nan;-24556.31;5057932;28;20199;-65
2022/05/23 09:23:44;;;;;;;5.65;3.10;;;;;;;26.62;nan;-24554.13;5074677;28;20201;-65
2022/05/23 09:26:16;;;;;;;3.72;2.60;;;;;;;26.64;nan;-24554.69;5078403;28;20643;-65
2022/05/23 09:28:42;;;;;;;3.55;2.80;;;;;;;26.67;nan;-24555.66;5074730;28;20174;-68
2022/05/23 09:31:55;;;;;;;2.95;2.60;;;;;;;27.03;nan;-24565.38;5074616;28;20613;-64
2022/05/23 09:34:28;;;;;;;3.75;2.50;;;;;;;27.33;nan;-24573.34;5055375;28;20248;-70
2022/05/23 09:36:54;;;;;;;4.75;2.65;;;;;;;27.70;nan;-24583.47;5079085;28;20524;-65
2022/05/23 09:39:24;;;;;;;6.28;2.33;;;;;;;27.72;nan;-24584.03;5076231;28;20186;-64
2022/05/23 09:47:49;;;;;;;3.63;1.83;;;;;;;27.57;nan;-24579.91;5062893;28;20181;-66
2022/05/23 09:50:26;;;;;;;3.55;1.77;;;;;;;27.34;nan;-24573.63;5073891;28;20170;-66
2022/05/23 09:52:56;;;;;;;2.80;2.17;;;;;;;27.20;nan;-24570.06;5073643;28;20176;-64
2022/05/23 09:55:30;;;;;;;3.00;2.40;;;;;;;27.18;nan;-24569.38;5078757;28;20610;-66
2022/05/23 09:58:08;;;;;;;6.45;2.47;;;;;;;27.07;nan;-24566.47;5075036;28;20717;-63
2022/05/23 10:00:36;;;;;;;3.42;2.35;;;;;;;27.33;nan;-24573.47;5076460;28;21238;-64
2022/05/23 10:03:07;;;;;;;2.67;2.28;;;;;;;27.21;nan;-24570.31;5075118;28;20174;-66
2022/05/23 10:05:36;;;;;;;2.55;2.05;;;;;;;27.48;nan;-24577.59;5076316;28;20205;-67
2022/05/23 10:08:26;;;;;;;2.80;2.13;;;;;;;26.70;nan;-24556.31;5073571;28;20268;-66
2022/05/23 10:11:04;;;;;;;3.75;2.63;;;;;;;28.26;nan;-24598.69;5076569;28;20272;-65
2022/05/23 10:13:35;;;;;;;8.50;4.13;;;;;;;28.50;nan;-24605.13;5073805;28;20194;-67
2022/05/23 10:16:32;;;;;;;3.58;2.47;;;;;;;28.83;nan;-24614.00;5076308;28;20229;-67
2022/05/23 10:19:03;;;;;;;2.40;2.10;;;;;;;28.44;nan;-24603.59;5063491;28;20268;-64
2022/05/23 10:21:38;;;;;;;7.82;3.05;;;;;;;28.43;nan;-24603.19;5078350;28;20630;-66
2022/05/23 10:24:08;;;;;;;4.22;2.42;;;;;;;28.43;nan;-24603.19;5073832;28;20199;-67
2022/05/23 10:26:50;;;;;;;5.47;3.03;;;;;;;28.57;nan;-24606.88;5072925;28;20281;-65
2022/05/23 10:29:27;;;;;;;2.90;2.40;;;;;;;28.44;nan;-24603.59;5075281;28;20184;-65
2022/05/23 10:32:09;;;;;;;3.10;2.17;;;;;;;28.80;nan;-24613.31;5073160;28;20641;-64
2022/05/23 10:34:40;;;;;;;2.63;2.10;;;;;;;28.59;nan;-24607.44;5072752;28;20185;-66
2022/05/23 10:37:21;;;;;;;2.78;2.22;;;;;;;28.09;nan;-24594.16;5076986;28;20587;-63
2022/05/23 10:42:41;;;;;;;3.25;2.30;;;;;;;28.21;nan;-24597.19;5063717;28;20185;-65
2022/05/23 10:45:24;;;;;;;3.25;2.20;;;;;;;28.60;nan;-24607.72;5077239;28;20188;-66
2022/05/23 10:48:08;;;;;;;3.88;2.05;;;;;;;28.84;nan;-24614.28;5079587;28;20225;-63
2022/05/23 10:51:17;;;;;;;3.95;2.85;;;;;;;28.71;nan;-24610.72;5074340;28;20184;-69
2022/05/23 10:54:06;;;;;;;5.15;2.22;;;;;;;28.75;nan;-24611.81;5044974;28;20324;-67
2022/05/23 10:56:46;;;;;;;3.58;2.30;;;;;;;28.60;nan;-24607.84;5072478;28;20216;-64
2022/05/23 10:59:22;;;;;;;2.92;2.00;;;;;;;28.91;nan;-24616.31;5072728;28;20166;-64
2022/05/23 11:01:55;;;;;;;4.40;2.42;;;;;;;29.06;nan;-24620.16;5072287;28;20238;-65
2022/05/23 11:05:01;;;;;;;2.45;2.00;;;;;;;28.83;nan;-24614.13;5072743;28;20629;-66
2022/05/23 11:08:11;;;;;;;4.05;2.17;;;;;;;29.36;nan;-24628.47;5071851;28;20176;-68
2022/05/23 11:10:56;;;;;;;3.10;2.40;;;;;;;29.57;nan;-24634.09;5069591;28;20202;-66
2022/05/23 11:13:40;;;;;;;4.57;2.10;;;;;;;29.82;nan;-24640.78;5072084;28;20186;-65
2022/05/23 11:16:14;;;;;;;2.33;1.92;;;;;;;29.87;nan;-24642.00;5071748;28;20274;-68
2022/05/23 11:18:55;;;;;;;3.15;2.17;;;;;;;29.78;nan;-24639.81;5070808;28;20243;-67
2022/05/23 11:21:43;;;;;;;2.40;2.00;;;;;;;29.44;nan;-24630.41;5071984;28;20223;-67
2022/05/23 11:24:16;;;;;;;2.58;2.05;;;;;;;29.40;nan;-24629.44;5071595;28;20166;-65
2022/05/23 11:26:48;;;;;;;3.42;1.90;;;;;;;29.25;nan;-24625.34;5070953;28;20170;-65
2022/05/23 11:35:03;;;;;;;1.80;1.70;;;;;;;29.02;nan;-24619.06;5076189;28;20678;-64
2022/05/23 11:37:45;;;;;;;2.33;2.00;;;;;;;28.48;nan;-24604.69;5076202;28;20197;-64
2022/05/23 11:40:25;;;;;;;2.97;2.00;;;;;;;29.13;nan;-24622.06;5071149;28;20161;-63
2022/05/23 11:43:07;;;;;;;2.20;1.90;;;;;;;29.48;nan;-24631.50;5073822;28;20197;-67
2022/05/23 11:48:35;;;;;;;3.00;1.90;;;;;;;29.02;nan;-24619.06;5074234;28;20204;-66
2022/05/23 11:51:16;;;;;;;1.98;1.83;;;;;;;29.22;nan;-24624.66;5074725;28;20326;-67
2022/05/23 11:54:00;;;;;;;2.13;1.70;;;;;;;29.59;nan;-24634.50;5075177;28;20654;-66
2022/05/23 11:56:43;;;;;;;1.95;1.75;;;;;;;29.64;nan;-24635.84;5075189;28;20209;-64
2022/05/23 11:59:29;;;;;;;2.85;1.67;;;;;;;29.58;nan;-24634.34;5076048;28;20188;-64
2022/05/23 12:02:06;;;;;;;1.70;1.42;;;;;;;29.55;nan;-24633.41;5062583;28;20647;-63
2022/05/23 12:04:57;;;;;;;1.88;1.65;;;;;;;29.56;nan;-24633.81;5074328;28;20564;-66
2022/05/23 12:07:31;;;;;;;2.55;1.75;;;;;;;29.67;nan;-24636.81;5074483;28;20254;-66
2022/05/23 12:10:36;;;;;;;3.22;1.83;;;;;;;29.60;nan;-24634.91;5073656;28;20192;-64
2022/05/23 12:13:11;;;;;;;3.08;1.75;;;;;;;29.92;nan;-24643.50;5076584;28;20193;-67
2022/05/23 12:15:43;;;;;;;4.22;1.77;;;;;;;29.93;nan;-24643.63;5076669;28;20683;-64
2022/05/23 12:18:34;;;;;;;3.30;1.65;;;;;;;30.02;nan;-24646.09;5079437;28;20184;-66
2022/05/23 12:21:21;;;;;;;2.22;1.77;;;;;;;29.92;nan;-24643.38;5072404;28;20598;-65
2022/05/23 12:23:47;;;;;;;3.22;1.90;;;;;;;29.53;nan;-24632.84;5065545;28;20661;-65
2022/05/23 12:26:13;;;;;;;1.90;1.70;;;;;;;29.45;nan;-24630.81;5074107;28;20180;-67
2022/05/23 12:28:55;;;;;;;1.73;1.63;;;;;;;29.74;nan;-24638.72;5077808;28;20177;-63
2022/05/23 12:31:27;;;;;;;2.20;1.80;;;;;;;29.49;nan;-24631.91;5075516;28;20231;-66
2022/05/23 12:34:13;;;;;;;2.45;2.03;;;;;;;29.81;nan;-24640.63;5076916;28;20185;-63
2022/05/23 12:36:49;;;;;;;2.35;1.73;;;;;;;29.80;nan;-24640.22;5076322;28;20976;-66
2022/05/23 12:39:41;;;;;;;2.47;1.80;;;;;;;29.47;nan;-24631.34;5076445;28;20195;-64
2022/05/23 12:42:15;;;;;;;1.92;1.55;;;;;;;29.56;nan;-24633.66;5081501;28;20185;-65
2022/05/23 12:45:08;;;;;;;2.78;1.80;;;;;;;29.40;nan;-24629.59;5081600;28;20651;-67
2022/05/23 12:47:39;;;;;;;2.08;1.55;;;;;;;29.53;nan;-24633.00;5077861;28;20655;-66
2022/05/23 12:50:26;;;;;;;1.73;1.58;;;;;;;29.58;nan;-24634.34;5074958;28;20170;-64
2022/05/23 12:53:01;;;;;;;2.00;1.80;;;;;;;29.56;nan;-24633.81;5073887;28;20678;-66
2022/05/23 12:56:05;;;;;;;1.85;1.73;;;;;;;29.56;nan;-24633.81;5081253;28;20228;-75